Time;durP1;ratioP1;P1;durP2;ratioP2;P2;SDS_P1;SDS_P2;PMS_P1;PMS_P2;Temp;Humidity;BMP_temperature;BMP_pressure;BME280_temperature;BME280_humidity;BME280_pressure;Samples;Min_cycle;Max_cycle;Signal;HPM_P1;HPM_P2
2023/09/18 00:01:14;;;;;;;13.65;12.45;;;21.70;86.70;;;;;;4012786;29;20056;-49
2023/09/18 00:03:55;;;;;;;13.48;12.18;;;21.70;86.70;;;;;;4013414;29;20057;-49
2023/09/18 00:06:37;;;;;;;14.50;13.10;;;21.70;86.70;;;;;;4012403;29;20073;-51
2023/09/18 00:09:17;;;;;;;16.27;14.52;;;21.70;86.70;;;;;;4013681;29;20154;-51
2023/09/18 00:12:00;;;;;;;17.25;15.55;;;21.60;86.60;;;;;;3998461;29;20056;-48
2023/09/18 00:14:41;;;;;;;17.90;16.10;;;21.60;86.60;;;;;;3997631;29;20057;-51
2023/09/18 00:17:23;;;;;;;;;;;21.60;86.60;;;;;;3998578;29;20613;-51
2023/09/18 00:20:06;;;;;;;17.58;15.77;;;21.60;86.70;;;;;;3998124;29;19936;-50
2023/09/18 00:22:47;;;;;;;18.27;16.38;;;21.60;86.80;;;;;;4006641;29;20057;-48
2023/09/18 00:25:28;;;;;;;18.27;16.38;;;21.60;86.80;;;;;;4013347;29;20553;-50
2023/09/18 00:28:11;;;;;;;18.60;16.65;;;21.60;86.80;;;;;;4012778;29;20060;-49
2023/09/18 00:30:52;;;;;;;15.65;14.20;;;21.60;86.80;;;;;;4013155;29;20509;-51
2023/09/18 00:33:32;;;;;;;18.02;16.30;;;21.60;87.00;;;;;;4013706;29;20064;-49
2023/09/18 00:36:13;;;;;;;21.15;19.10;;;21.60;87.20;;;;;;3988990;29;20069;-50
2023/09/18 00:38:54;;;;;;;19.83;17.90;;;21.50;87.20;;;;;;4013763;29;20137;-51
2023/09/18 00:41:34;;;;;;;20.42;18.48;;;21.50;87.20;;;;;;4013169;29;20084;-51
2023/09/18 00:44:17;;;;;;;21.63;19.42;;;21.50;87.40;;;;;;4012591;29;20052;-48
2023/09/18 00:46:58;;;;;;;20.52;18.50;;;21.50;87.40;;;;;;4001739;29;20072;-51
2023/09/18 00:49:41;;;;;;;22.48;20.38;;;21.50;87.60;;;;;;4013076;29;20197;-52
2023/09/18 00:52:24;;;;;;;20.20;18.20;;;21.50;87.50;;;;;;4013474;29;20068;-48
2023/09/18 00:55:07;;;;;;;22.70;20.25;;;21.50;88.60;;;;;;4001806;29;20052;-51
2023/09/18 00:57:48;;;;;;;20.73;18.58;;;21.50;87.80;;;;;;4012743;29;20220;-48
2023/09/18 01:00:31;;;;;;;19.70;17.75;;;21.50;88.00;;;;;;4013015;29;20516;-51
2023/09/18 01:03:12;;;;;;;21.13;18.92;;;21.50;88.00;;;;;;4001644;29;20096;-51
2023/09/18 01:05:54;;;;;;;21.40;18.50;;;21.50;88.10;;;;;;4012180;29;20573;-53
2023/09/18 01:08:36;;;;;;;20.92;18.85;;;21.40;88.10;;;;;;4013144;29;20079;-52
2023/09/18 01:11:27;;;;;;;21.73;19.70;;;21.40;88.20;;;;;;4012308;29;20052;-50
2023/09/18 01:14:15;;;;;;;22.60;20.27;;;21.40;88.20;;;;;;4011933;29;20092;-53
2023/09/18 01:16:58;;;;;;;23.25;20.95;;;21.40;88.30;;;;;;4012818;29;20056;-49
2023/09/18 01:19:42;;;;;;;22.60;20.35;;;21.40;88.40;;;;;;4001313;29;20120;-52
2023/09/18 01:22:23;;;;;;;23.40;21.10;;;21.40;88.70;;;;;;4001541;29;20136;-49
2023/09/18 01:25:06;;;;;;;;;;;21.40;88.90;;;;;;4012693;29;20060;-51
2023/09/18 01:27:48;;;;;;;24.80;22.38;;;21.40;89.00;;;;;;4012678;29;19931;-56
2023/09/18 01:30:29;;;;;;;25.98;21.92;;;21.40;89.00;;;;;;4012049;29;20065;-57
2023/09/18 01:33:11;;;;;;;25.40;22.77;;;21.40;89.30;;;;;;4012172;29;20065;-57
2023/09/18 01:35:54;;;;;;;23.77;21.40;;;21.40;89.60;;;;;;4012504;29;20060;-57
2023/09/18 01:38:37;;;;;;;24.52;22.05;;;21.40;89.70;;;;;;4012146;29;20057;-57
2023/09/18 01:41:20;;;;;;;24.23;21.83;;;21.30;90.20;;;;;;4011598;29;20601;-56
2023/09/18 01:44:02;;;;;;;24.40;22.00;;;21.30;89.80;;;;;;4011936;29;20060;-56
2023/09/18 01:46:44;;;;;;;24.42;21.85;;;21.30;90.00;;;;;;4000832;29;20504;-57
2023/09/18 01:49:30;;;;;;;23.85;21.58;;;21.30;90.00;;;;;;4001052;29;20087;-57
2023/09/18 01:52:11;;;;;;;23.80;20.88;;;21.30;90.00;;;;;;4000945;29;20053;-56
2023/09/18 01:54:52;;;;;;;;;;;21.30;90.00;;;;;;4001103;29;20064;-57
2023/09/18 01:57:35;;;;;;;25.88;23.23;;;21.30;90.00;;;;;;4011522;29;19935;-57
2023/09/18 02:00:18;;;;;;;26.38;23.65;;;21.30;89.80;;;;;;4001005;29;20064;-58
2023/09/18 02:02:59;;;;;;;25.83;23.00;;;21.30;90.00;;;;;;3985792;29;20101;-57
2023/09/18 02:05:45;;;;;;;24.48;22.17;;;21.30;89.80;;;;;;3996183;29;20086;-57
2023/09/18 02:08:26;;;;;;;24.95;22.15;;;21.30;89.80;;;;;;4001175;29;20080;-57
2023/09/18 02:11:08;;;;;;;25.75;22.13;;;21.30;89.80;;;;;;4011002;29;20076;-57
2023/09/18 02:13:50;;;;;;;24.85;21.90;;;21.30;89.70;;;;;;4000456;29;20419;-57
2023/09/18 02:16:32;;;;;;;22.92;20.77;;;21.30;89.80;;;;;;4000190;29;20104;-57
2023/09/18 02:19:14;;;;;;;;;;;21.30;89.80;;;;;;3997115;29;20136;-57
2023/09/18 02:21:56;;;;;;;;;;;21.30;89.60;;;;;;3996048;29;19935;-57
2023/09/18 02:24:39;;;;;;;22.35;19.92;;;21.30;89.50;;;;;;3985612;29;20023;-57
2023/09/18 02:27:19;;;;;;;22.95;20.67;;;21.30;89.40;;;;;;3996539;29;20145;-57
2023/09/18 02:30:02;;;;;;;23.30;21.10;;;21.30;89.70;;;;;;3997068;29;20114;-56
2023/09/18 02:32:44;;;;;;;22.33;19.73;;;21.30;89.80;;;;;;3996698;29;20192;-57
2023/09/18 02:35:25;;;;;;;22.75;20.42;;;21.30;89.80;;;;;;3996409;29;20057;-56
2023/09/18 02:38:06;;;;;;;23.50;20.98;;;21.30;89.90;;;;;;3999908;29;20406;-56
2023/09/18 02:40:47;;;;;;;21.88;19.70;;;21.20;89.90;;;;;;4011256;29;20500;-57
2023/09/18 02:43:28;;;;;;;21.85;19.73;;;21.30;90.00;;;;;;4011430;29;20068;-57
2023/09/18 02:46:11;;;;;;;20.95;19.08;;;21.30;90.00;;;;;;4010420;29;20060;-57
2023/09/18 02:48:52;;;;;;;22.13;19.67;;;21.30;90.00;;;;;;4010833;29;20386;-57
2023/09/18 02:51:33;;;;;;;;;;;21.30;90.10;;;;;;4012057;29;20072;-57
2023/09/18 02:54:14;;;;;;;21.83;19.63;;;21.30;90.10;;;;;;4010787;29;19979;-57
2023/09/18 02:56:56;;;;;;;21.40;19.27;;;21.30;90.00;;;;;;4011333;29;20413;-57
2023/09/18 02:59:36;;;;;;;21.33;19.20;;;21.20;89.90;;;;;;4006654;29;20410;-57
2023/09/18 03:02:19;;;;;;;21.15;19.13;;;21.30;90.00;;;;;;4010687;29;20532;-57
2023/09/18 03:05:00;;;;;;;21.08;18.95;;;21.20;90.00;;;;;;4011419;29;20065;-57
2023/09/18 03:07:41;;;;;;;21.02;18.98;;;21.20;90.00;;;;;;4010418;29;20082;-57
2023/09/18 03:10:22;;;;;;;20.50;18.30;;;21.20;90.10;;;;;;3999817;29;20203;-57
2023/09/18 03:13:03;;;;;;;18.92;17.25;;;21.20;90.10;;;;;;3999962;29;20109;-57
2023/09/18 03:15:48;;;;;;;18.90;17.08;;;21.20;90.10;;;;;;4000469;29;20421;-57
2023/09/18 03:18:30;;;;;;;18.67;16.98;;;21.20;90.50;;;;;;4010799;29;20209;-57
2023/09/18 03:21:11;;;;;;;18.65;16.90;;;21.20;90.20;;;;;;4003076;29;20054;-57
2023/09/18 03:23:52;;;;;;;19.17;15.05;;;21.20;90.20;;;;;;4003082;29;20064;-57
2023/09/18 03:26:33;;;;;;;18.30;16.15;;;21.20;90.20;;;;;;4013587;29;20084;-56
2023/09/18 03:29:14;;;;;;;;;;;21.20;90.20;;;;;;4007334;29;20088;-56
2023/09/18 03:31:57;;;;;;;15.75;14.25;;;21.20;90.20;;;;;;4012328;29;19963;-58
2023/09/18 03:34:40;;;;;;;15.80;14.10;;;21.20;90.10;;;;;;4007904;29;20536;-56
2023/09/18 03:37:22;;;;;;;14.70;13.18;;;21.20;90.30;;;;;;4002880;29;20492;-58
2023/09/18 03:40:04;;;;;;;;;;;21.20;90.30;;;;;;4013717;29;20381;-55
2023/09/18 03:42:45;;;;;;;17.17;13.85;;;21.20;90.20;;;;;;4009072;29;20015;-56
2023/09/18 03:45:26;;;;;;;;;;;21.20;90.10;;;;;;4013890;29;20057;-56
2023/09/18 03:48:08;;;;;;;15.25;13.73;;;21.20;90.10;;;;;;4000744;29;19935;-56
2023/09/18 03:50:50;;;;;;;14.43;13.18;;;21.20;90.10;;;;;;4012646;29;20061;-55
2023/09/18 03:53:31;;;;;;;14.98;13.70;;;21.20;90.10;;;;;;4002225;29;20084;-57
2023/09/18 03:56:12;;;;;;;14.65;13.30;;;21.20;90.50;;;;;;4013561;29;20133;-56
2023/09/18 03:58:53;;;;;;;15.93;14.43;;;21.20;90.20;;;;;;4012996;29;20065;-56
2023/09/18 04:01:34;;;;;;;14.32;12.95;;;21.20;90.20;;;;;;4014225;29;20060;-57
2023/09/18 04:04:15;;;;;;;15.32;13.75;;;21.20;90.60;;;;;;4002702;29;20060;-56
2023/09/18 04:06:57;;;;;;;16.80;13.73;;;21.20;90.20;;;;;;4014232;29;20108;-57
2023/09/18 04:09:39;;;;;;;14.13;12.82;;;21.20;90.30;;;;;;3991975;29;20056;-56
2023/09/18 04:12:20;;;;;;;14.18;12.77;;;21.20;90.30;;;;;;4013829;29;20060;-56
2023/09/18 04:15:02;;;;;;;;;;;21.20;90.30;;;;;;4014079;29;20060;-56
2023/09/18 04:17:43;;;;;;;13.10;11.85;;;21.20;90.20;;;;;;4012921;29;19935;-55
2023/09/18 04:20:23;;;;;;;16.52;12.93;;;21.20;90.10;;;;;;4012872;29;20061;-56
2023/09/18 04:23:24;;;;;;;13.93;12.55;;;21.20;90.10;;;;;;4012461;29;20413;-56
2023/09/18 04:26:05;;;;;;;13.45;12.05;;;21.20;90.20;;;;;;3999001;29;20063;-57
2023/09/18 04:28:46;;;;;;;14.02;12.65;;;21.10;90.10;;;;;;4014103;29;20088;-57
2023/09/18 04:31:28;;;;;;;;;;;21.10;90.20;;;;;;4013653;29;20052;-57
2023/09/18 04:34:10;;;;;;;;;;;21.10;90.20;;;;;;3993657;29;19931;-57
2023/09/18 04:36:51;;;;;;;14.15;12.75;;;21.10;90.50;;;;;;4011904;29;20045;-58
2023/09/18 04:39:36;;;;;;;;;;;21.10;90.10;;;;;;4012344;29;20081;-58
2023/09/18 04:42:18;;;;;;;14.15;12.15;;;21.10;90.60;;;;;;4012858;29;20068;-50
2023/09/18 04:44:59;;;;;;;14.07;12.63;;;21.20;90.30;;;;;;4012496;29;20057;-52
2023/09/18 04:47:40;;;;;;;;;;;21.10;90.40;;;;;;4012947;29;20060;-52
2023/09/18 04:50:21;;;;;;;13.63;12.30;;;21.10;90.40;;;;;;4002379;29;19934;-48
2023/09/18 04:53:03;;;;;;;14.43;13.02;;;21.10;90.30;;;;;;4012494;29;20701;-51
2023/09/18 04:55:49;;;;;;;15.80;14.00;;;21.20;90.40;;;;;;4002634;29;20056;-50
2023/09/18 04:58:30;;;;;;;14.57;13.07;;;21.10;90.60;;;;;;4013093;29;20060;-53
2023/09/18 05:01:11;;;;;;;14.77;13.25;;;21.10;90.60;;;;;;4013616;29;20200;-51
2023/09/18 05:03:53;;;;;;;14.27;12.77;;;21.20;90.70;;;;;;4012390;29;20065;-50
2023/09/18 05:06:34;;;;;;;13.48;12.10;;;21.20;90.60;;;;;;4012532;29;20068;-48
2023/09/18 05:09:16;;;;;;;13.98;12.57;;;21.10;90.70;;;;;;4012490;29;20064;-48
2023/09/18 05:11:58;;;;;;;13.73;12.43;;;21.20;90.70;;;;;;4012746;29;20093;-48
2023/09/18 05:14:38;;;;;;;14.68;12.73;;;21.20;90.70;;;;;;4012808;29;20065;-48
2023/09/18 05:17:20;;;;;;;13.50;12.13;;;21.20;90.60;;;;;;4013299;29;20125;-47
2023/09/18 05:20:01;;;;;;;20.00;12.15;;;21.20;90.70;;;;;;4012555;29;20056;-51
2023/09/18 05:22:42;;;;;;;15.38;12.80;;;21.20;90.60;;;;;;4013143;29;20076;-48
2023/09/18 05:25:25;;;;;;;14.48;12.63;;;21.20;90.60;;;;;;4013214;29;20052;-47
2023/09/18 05:28:08;;;;;;;13.95;12.55;;;21.20;90.70;;;;;;4012813;29;20137;-49
2023/09/18 05:30:49;;;;;;;14.05;11.63;;;21.20;90.70;;;;;;4012993;29;20060;-51
2023/09/18 05:33:30;;;;;;;14.05;12.65;;;21.20;90.80;;;;;;4008915;29;20493;-50
2023/09/18 05:36:11;;;;;;;14.73;12.35;;;21.20;90.80;;;;;;4012132;29;20190;-48
2023/09/18 05:38:52;;;;;;;13.43;11.95;;;21.20;90.80;;;;;;4012478;29;20133;-48
2023/09/18 05:41:33;;;;;;;16.33;12.13;;;21.10;90.80;;;;;;3996495;29;20057;-47
2023/09/18 05:44:16;;;;;;;13.55;12.15;;;21.20;90.80;;;;;;3997300;29;20142;-49
2023/09/18 05:46:57;;;;;;;14.55;10.93;;;21.20;90.80;;;;;;4000302;29;20064;-58
2023/09/18 05:49:38;;;;;;;13.82;10.90;;;21.20;90.90;;;;;;4011719;29;20060;-57
2023/09/18 05:52:19;;;;;;;13.40;10.43;;;21.10;91.20;;;;;;4012302;29;20061;-57
2023/09/18 05:55:00;;;;;;;12.35;11.15;;;21.20;90.90;;;;;;3997933;29;20532;-57
2023/09/18 05:57:44;;;;;;;12.95;10.90;;;21.20;91.00;;;;;;4012039;29;20048;-57
2023/09/18 06:00:26;;;;;;;11.98;10.20;;;21.20;91.30;;;;;;4012460;29;20158;-58
2023/09/18 06:03:09;;;;;;;12.57;11.20;;;21.20;91.10;;;;;;4011769;29;20056;-57
2023/09/18 06:05:50;;;;;;;11.80;10.30;;;21.20;91.10;;;;;;3996735;29;20056;-57
2023/09/18 06:08:33;;;;;;;13.23;11.05;;;21.20;91.10;;;;;;3997894;29;20076;-58
2023/09/18 06:11:14;;;;;;;12.40;10.07;;;21.10;91.30;;;;;;4011633;29;20185;-57
2023/09/18 06:13:55;;;;;;;14.23;11.20;;;21.20;91.20;;;;;;4011514;29;20516;-57
2023/09/18 06:16:37;;;;;;;14.10;10.82;;;21.20;91.30;;;;;;4012223;29;20072;-57
2023/09/18 06:19:18;;;;;;;11.45;9.93;;;21.20;91.30;;;;;;4012663;29;20554;-57
2023/09/18 06:22:00;;;;;;;12.38;11.07;;;21.20;91.30;;;;;;4012312;29;20496;-57
2023/09/18 06:24:42;;;;;;;12.15;9.90;;;21.20;91.30;;;;;;4017881;29;20051;-57
2023/09/18 06:27:23;;;;;;;11.32;10.00;;;21.10;91.30;;;;;;4024618;29;20181;-49
2023/09/18 06:30:04;;;;;;;12.40;10.30;;;21.20;91.30;;;;;;4011471;29;20105;-48
2023/09/18 06:32:46;;;;;;;;;;;21.20;91.30;;;;;;4012425;29;20461;-46
2023/09/18 06:35:27;;;;;;;15.65;9.57;;;21.20;91.30;;;;;;4011058;29;19946;-48
2023/09/18 06:38:11;;;;;;;;;;;21.20;91.50;;;;;;4012368;29;20109;-48
2023/09/18 06:40:53;;;;;;;13.93;9.10;;;21.20;91.10;;;;;;4012064;29;20061;-46
2023/09/18 06:43:34;;;;;;;13.40;9.00;;;21.10;91.00;;;;;;4006883;29;20052;-56
2023/09/18 06:46:15;;;;;;;11.55;8.93;;;21.20;91.20;;;;;;4011711;29;20159;-57
2023/09/18 06:48:59;;;;;;;;;;;21.20;91.20;;;;;;4012033;29;20060;-56
2023/09/18 06:51:40;;;;;;;12.23;8.63;;;21.20;91.20;;;;;;4011734;29;20456;-56
2023/09/18 06:54:24;;;;;;;13.20;8.73;;;21.20;91.10;;;;;;4013556;29;20512;-57
2023/09/18 06:57:05;;;;;;;13.82;8.32;;;21.20;91.50;;;;;;3999412;29;20065;-57
2023/09/18 06:59:46;;;;;;;;;;;21.20;92.00;;;;;;4012835;29;20053;-57
2023/09/18 07:02:28;;;;;;;9.55;8.55;;;21.30;91.60;;;;;;4003360;29;19934;-57
2023/09/18 07:05:10;;;;;;;9.55;8.25;;;21.30;91.50;;;;;;4014376;29;20048;-57
2023/09/18 07:07:51;;;;;;;8.50;7.60;;;21.30;91.50;;;;;;4013313;29;20188;-56
2023/09/18 07:10:32;;;;;;;10.13;8.43;;;21.20;91.50;;;;;;4014600;29;20152;-55
2023/09/18 07:13:13;;;;;;;10.90;7.82;;;21.20;91.60;;;;;;4015350;29;20052;-56
2023/09/18 07:15:54;;;;;;;9.00;7.57;;;21.30;91.60;;;;;;4014692;29;20163;-55
2023/09/18 07:18:35;;;;;;;10.80;8.23;;;21.30;91.60;;;;;;4014772;29;20193;-56
2023/09/18 07:21:18;;;;;;;13.30;7.78;;;21.20;91.60;;;;;;4014835;29;20060;-55
2023/09/18 07:23:59;;;;;;;11.25;8.00;;;21.20;91.60;;;;;;4014355;29;20064;-55
2023/09/18 07:26:40;;;;;;;14.27;8.88;;;21.20;91.60;;;;;;4014353;29;20092;-56
2023/09/18 07:29:21;;;;;;;;;;;21.20;91.90;;;;;;4014161;29;20513;-56
2023/09/18 07:32:02;;;;;;;13.05;8.52;;;21.20;91.60;;;;;;4013996;29;20399;-56
2023/09/18 07:34:47;;;;;;;13.00;8.43;;;21.20;91.60;;;;;;4014882;29;20056;-56
2023/09/18 07:37:29;;;;;;;11.23;8.73;;;21.20;91.70;;;;;;4014343;29;20092;-46
2023/09/18 07:40:10;;;;;;;11.80;8.35;;;21.20;91.80;;;;;;4014528;29;20048;-48
2023/09/18 07:42:51;;;;;;;11.02;8.45;;;21.20;92.00;;;;;;4014095;29;20068;-49
2023/09/18 07:45:32;;;;;;;10.40;8.57;;;21.20;92.40;;;;;;4014466;29;20405;-51
2023/09/18 07:48:13;;;;;;;9.30;7.93;;;21.20;92.10;;;;;;4014083;29;20520;-47
2023/09/18 07:50:55;;;;;;;;;;;21.30;92.20;;;;;;4014521;29;20116;-50
2023/09/18 07:53:37;;;;;;;8.85;8.05;;;21.20;92.10;;;;;;4014429;29;19931;-50
2023/09/18 07:56:19;;;;;;;8.55;7.65;;;21.30;92.10;;;;;;3998581;29;20061;-48
2023/09/18 07:59:00;;;;;;;9.27;7.70;;;21.30;92.10;;;;;;4008468;29;20076;-51
2023/09/18 08:01:42;;;;;;;9.70;7.97;;;21.30;92.20;;;;;;4013995;29;20136;-49
2023/09/18 08:04:23;;;;;;;11.05;8.07;;;21.30;92.20;;;;;;4013570;29;20084;-49
2023/09/18 08:07:05;;;;;;;9.63;8.60;;;21.30;92.20;;;;;;4013385;29;20413;-48
2023/09/18 08:09:49;;;;;;;11.10;8.13;;;21.30;92.40;;;;;;4014090;29;20084;-49
2023/09/18 08:12:30;;;;;;;11.82;8.15;;;21.30;92.70;;;;;;4013982;29;20101;-55
2023/09/18 08:15:11;;;;;;;11.30;8.65;;;21.30;92.70;;;;;;4013607;29;20405;-55
2023/09/18 08:17:53;;;;;;;9.55;8.50;;;21.30;92.70;;;;;;4012849;29;20097;-55
2023/09/18 08:20:36;;;;;;;11.05;8.10;;;21.30;92.70;;;;;;4013706;29;20068;-56
2023/09/18 08:23:18;;;;;;;10.13;8.15;;;21.30;92.80;;;;;;4012904;29;20076;-55
2023/09/18 08:26:01;;;;;;;;;;;21.30;92.50;;;;;;4012131;29;20540;-55
2023/09/18 08:28:43;;;;;;;9.38;7.35;;;21.30;92.70;;;;;;4004823;29;19931;-56
2023/09/18 08:31:25;;;;;;;7.60;6.88;;;21.30;92.50;;;;;;4014261;29;20081;-55
2023/09/18 08:34:05;;;;;;;;;;;21.30;92.60;;;;;;4014561;29;20060;-54
2023/09/18 08:36:46;;;;;;;7.15;6.47;;;21.30;92.70;;;;;;4013508;29;19990;-55
2023/09/18 08:39:27;;;;;;;8.10;7.03;;;21.30;92.40;;;;;;4013717;29;20064;-54
2023/09/18 08:42:11;;;;;;;7.25;6.30;;;21.30;92.60;;;;;;3998202;29;20083;-53
2023/09/18 08:44:54;;;;;;;8.25;6.60;;;21.30;92.70;;;;;;4011901;29;20072;-56
2023/09/18 08:47:36;;;;;;;7.18;6.30;;;21.30;92.80;;;;;;4010156;29;20065;-55
2023/09/18 08:50:17;;;;;;;7.43;6.78;;;21.30;92.90;;;;;;4008218;29;20116;-57
2023/09/18 08:52:58;;;;;;;;;;;21.30;92.90;;;;;;4013670;29;20055;-57
2023/09/18 08:55:39;;;;;;;7.00;5.97;;;21.30;93.10;;;;;;4013492;29;19931;-58
2023/09/18 08:58:22;;;;;;;10.43;6.43;;;21.30;92.90;;;;;;4012685;29;20064;-62
2023/09/18 09:01:05;;;;;;;7.22;6.47;;;21.30;93.20;;;;;;4013407;29;20074;-58
2023/09/18 09:03:47;;;;;;;6.95;6.22;;;21.40;93.30;;;;;;4011821;29;20084;-57
2023/09/18 09:06:28;;;;;;;6.10;5.57;;;21.50;93.50;;;;;;4012571;29;20056;-57
2023/09/18 09:09:08;;;;;;;8.38;6.22;;;21.50;93.50;;;;;;4013093;29;20163;-57
2023/09/18 09:11:50;;;;;;;6.85;6.10;;;21.60;93.50;;;;;;4013060;29;20429;-58
2023/09/18 09:14:33;;;;;;;7.43;6.65;;;21.60;93.40;;;;;;4013011;29;20104;-57
2023/09/18 09:17:19;;;;;;;6.53;6.03;;;21.70;93.40;;;;;;4012701;29;20113;-56
2023/09/18 09:20:10;;;;;;;6.70;6.07;;;21.70;93.50;;;;;;4011439;29;20136;-58
2023/09/18 09:22:53;;;;;;;9.20;6.88;;;21.80;93.50;;;;;;4011441;29;20631;-54
2023/09/18 09:25:35;;;;;;;7.40;6.57;;;21.80;93.40;;;;;;4012608;29;20064;-57
2023/09/18 09:28:16;;;;;;;7.55;6.93;;;21.80;93.40;;;;;;3997767;29;20626;-57
2023/09/18 09:31:03;;;;;;;8.15;6.97;;;21.80;93.40;;;;;;3997590;29;20114;-57
2023/09/18 09:33:52;;;;;;;8.10;6.85;;;21.90;93.40;;;;;;4010953;29;20052;-59
2023/09/18 09:36:33;;;;;;;7.28;6.68;;;21.90;93.40;;;;;;4013079;29;20047;-54
2023/09/18 09:39:18;;;;;;;10.35;7.25;;;21.90;93.30;;;;;;4012159;29;20611;-57
2023/09/18 09:42:03;;;;;;;8.55;7.65;;;21.90;93.30;;;;;;4012634;29;20105;-56
2023/09/18 09:44:45;;;;;;;7.53;6.93;;;21.90;93.30;;;;;;4012648;29;20553;-54
2023/09/18 09:47:30;;;;;;;9.93;8.25;;;21.90;93.30;;;;;;4012141;29;20056;-55
2023/09/18 09:50:13;;;;;;;8.80;8.00;;;21.90;93.30;;;;;;4012143;29;20061;-56
2023/09/18 09:52:56;;;;;;;9.57;8.40;;;21.90;93.40;;;;;;3996697;29;20056;-56
2023/09/18 09:55:38;;;;;;;9.00;8.18;;;21.80;93.40;;;;;;3997585;29;20137;-56
2023/09/18 09:58:30;;;;;;;9.73;8.93;;;21.80;93.50;;;;;;3997294;29;20060;-56
2023/09/18 10:01:17;;;;;;;10.00;9.10;;;21.80;93.70;;;;;;4009004;29;20202;-55
2023/09/18 10:04:01;;;;;;;11.70;9.75;;;21.80;93.60;;;;;;4015383;29;20125;-55
2023/09/18 10:06:44;;;;;;;14.95;10.25;;;21.70;93.70;;;;;;4012033;29;20049;-56
2023/09/18 10:09:29;;;;;;;15.88;10.90;;;21.70;93.90;;;;;;4011076;29;20057;-55
2023/09/18 10:12:13;;;;;;;11.75;10.55;;;21.70;94.00;;;;;;4012380;29;20056;-58
2023/09/18 10:14:57;;;;;;;15.20;10.65;;;21.70;94.20;;;;;;4011478;29;20072;-58
2023/09/18 10:17:45;;;;;;;14.18;11.90;;;21.80;94.30;;;;;;4011786;29;20455;-58
2023/09/18 10:20:29;;;;;;;12.85;11.38;;;21.80;94.20;;;;;;4012146;29;20519;-57
2023/09/18 10:23:23;;;;;;;14.88;13.35;;;21.80;94.30;;;;;;4009234;29;20105;-58
2023/09/18 10:26:05;;;;;;;18.30;13.23;;;21.80;94.50;;;;;;4010678;29;20516;-57
2023/09/18 10:28:48;;;;;;;15.63;13.40;;;21.80;94.50;;;;;;4011032;29;20127;-57
2023/09/18 10:31:29;;;;;;;15.52;13.50;;;21.80;94.60;;;;;;4011524;29;20063;-59
2023/09/18 10:34:13;;;;;;;13.95;12.55;;;21.80;94.80;;;;;;4011159;29;20089;-58
2023/09/18 10:36:56;;;;;;;14.50;12.98;;;21.80;94.80;;;;;;3996253;29;20147;-58
2023/09/18 10:39:39;;;;;;;15.43;13.93;;;21.80;94.90;;;;;;3996157;29;20109;-57
2023/09/18 10:42:23;;;;;;;16.15;14.48;;;21.80;94.90;;;;;;3996434;29;20409;-57
2023/09/18 10:45:06;;;;;;;17.33;14.15;;;21.80;94.90;;;;;;4007703;29;20052;-57
2023/09/18 10:47:49;;;;;;;17.13;13.93;;;21.80;94.80;;;;;;4011053;29;20060;-59
2023/09/18 10:50:30;;;;;;;16.27;14.50;;;21.80;95.30;;;;;;4010873;29;20065;-59
2023/09/18 10:53:13;;;;;;;16.20;12.50;;;21.90;94.90;;;;;;4011742;29;20193;-58
2023/09/18 10:55:54;;;;;;;14.45;13.15;;;21.90;94.80;;;;;;4011028;29;20056;-57
2023/09/18 10:58:38;;;;;;;15.60;12.68;;;21.90;94.70;;;;;;4010756;29;20064;-57
2023/09/18 11:01:19;;;;;;;13.05;11.55;;;21.90;94.80;;;;;;4011138;29;20072;-55
2023/09/18 11:04:02;;;;;;;11.90;10.77;;;21.90;94.80;;;;;;4011507;29;20076;-57
2023/09/18 11:07:07;;;;;;;12.30;11.07;;;21.90;94.80;;;;;;4010698;29;20508;-58
2023/09/18 11:09:50;;;;;;;10.48;9.23;;;22.00;94.90;;;;;;4010011;29;20052;-57
2023/09/18 11:12:45;;;;;;;10.15;9.02;;;22.00;94.50;;;;;;4011135;29;20417;-58
2023/09/18 11:15:31;;;;;;;10.00;8.57;;;22.00;94.70;;;;;;4010392;29;20056;-57
2023/09/18 11:18:21;;;;;;;9.45;7.95;;;22.00;94.50;;;;;;4011486;29;20046;-58
2023/09/18 11:21:10;;;;;;;8.98;7.25;;;22.10;94.50;;;;;;4011327;29;20060;-57
2023/09/18 11:23:59;;;;;;;9.57;6.97;;;22.10;94.30;;;;;;4011571;29;20100;-57
2023/09/18 11:26:43;;;;;;;6.53;5.95;;;22.10;94.30;;;;;;4011899;29;20109;-57
2023/09/18 11:29:26;;;;;;;7.45;6.35;;;22.20;94.20;;;;;;4011125;29;20060;-57
2023/09/18 11:32:09;;;;;;;6.22;5.78;;;22.20;94.00;;;;;;4011452;29;20052;-57
2023/09/18 11:35:08;;;;;;;6.65;6.05;;;22.20;93.90;;;;;;4011372;29;20128;-57
2023/09/18 11:38:06;;;;;;;6.13;5.45;;;22.20;93.80;;;;;;4010682;29;20061;-57
2023/09/18 11:40:47;;;;;;;4.85;4.55;;;22.20;93.50;;;;;;4011361;29;20129;-58
2023/09/18 11:43:30;;;;;;;5.60;5.20;;;22.20;93.40;;;;;;4014408;29;20068;-57
2023/09/18 11:46:12;;;;;;;6.22;4.97;;;22.20;93.20;;;;;;4014133;29;20145;-57
2023/09/18 11:48:53;;;;;;;5.88;5.47;;;22.20;93.10;;;;;;4014406;29;20108;-58
2023/09/18 11:51:35;;;;;;;5.25;4.85;;;22.30;93.00;;;;;;4014177;29;20510;-57
2023/09/18 11:54:16;;;;;;;5.50;5.00;;;22.30;93.00;;;;;;4013828;29;20230;-57
2023/09/18 11:57:04;;;;;;;5.70;4.88;;;22.30;93.00;;;;;;4013787;29;20416;-59
2023/09/18 11:59:47;;;;;;;5.47;4.53;;;22.30;93.00;;;;;;4013694;29;20056;-57
2023/09/18 12:02:34;;;;;;;5.18;4.68;;;22.30;92.90;;;;;;4014178;29;20060;-57
2023/09/18 12:05:17;;;;;;;5.18;4.75;;;22.30;92.70;;;;;;4014295;29;20056;-57
2023/09/18 12:07:58;;;;;;;6.20;4.72;;;22.40;92.70;;;;;;4013944;29;20182;-57
2023/09/18 12:10:39;;;;;;;4.40;4.07;;;22.30;92.50;;;;;;4014005;29;20052;-57
2023/09/18 12:13:20;;;;;;;;;;;22.30;92.40;;;;;;4014903;29;20186;-57
2023/09/18 12:16:05;;;;;;;8.07;4.53;;;22.40;92.30;;;;;;4014284;29;20013;-58
2023/09/18 12:18:47;;;;;;;4.93;4.45;;;22.40;92.30;;;;;;4013810;29;20464;-58
2023/09/18 12:21:28;;;;;;;6.50;5.38;;;22.40;92.30;;;;;;4013471;29;20080;-52
2023/09/18 12:24:14;;;;;;;6.57;4.90;;;22.40;92.60;;;;;;4013578;29;20189;-52
2023/09/18 12:26:55;;;;;;;4.93;4.53;;;22.40;92.20;;;;;;4013713;29;20460;-53
2023/09/18 12:29:37;;;;;;;5.30;4.68;;;22.40;92.20;;;;;;4013863;29;20064;-53
2023/09/18 12:32:19;;;;;;;5.65;5.10;;;22.40;92.10;;;;;;4013945;29;20101;-49
2023/09/18 12:35:01;;;;;;;4.78;4.32;;;22.50;92.00;;;;;;4014016;29;20116;-57
2023/09/18 12:37:42;;;;;;;;;;;22.50;92.00;;;;;;4014477;29;20057;-57
2023/09/18 12:40:24;;;;;;;5.10;4.55;;;22.50;92.00;;;;;;4013576;29;19931;-57
2023/09/18 12:43:06;;;;;;;5.03;4.43;;;22.50;92.00;;;;;;4012513;29;20120;-57
2023/09/18 12:45:48;;;;;;;5.85;4.10;;;22.60;92.10;;;;;;4013239;29;20501;-57
2023/09/18 12:48:30;;;;;;;6.07;4.22;;;22.60;92.00;;;;;;4013161;29;20053;-57
2023/09/18 12:51:11;;;;;;;5.15;3.88;;;22.60;91.80;;;;;;4013049;29;20087;-57
2023/09/18 12:54:00;;;;;;;4.10;3.72;;;22.60;91.70;;;;;;4013657;29;20056;-57
2023/09/18 12:56:42;;;;;;;6.05;3.78;;;22.70;91.50;;;;;;4013682;29;20400;-57
2023/09/18 12:59:22;;;;;;;5.03;4.10;;;22.70;91.40;;;;;;4013335;29;20108;-58
2023/09/18 13:02:04;;;;;;;4.72;4.13;;;22.70;91.40;;;;;;4012334;29;20056;-57
2023/09/18 13:04:54;;;;;;;5.07;4.57;;;22.70;91.30;;;;;;4012979;29;20188;-58
2023/09/18 13:07:45;;;;;;;6.95;3.60;;;22.80;91.20;;;;;;4012255;29;20064;-57
2023/09/18 13:10:26;;;;;;;;;;;22.80;91.10;;;;;;4012502;29;20068;-53
2023/09/18 13:13:16;;;;;;;4.63;3.95;;;22.80;91.10;;;;;;4013328;29;19930;-57
2023/09/18 13:16:00;;;;;;;4.05;3.72;;;22.90;91.10;;;;;;4012948;29;20128;-58
2023/09/18 13:18:41;;;;;;;5.78;3.95;;;22.90;91.50;;;;;;4012786;29;20526;-57
2023/09/18 13:21:23;;;;;;;;;;;22.90;91.00;;;;;;4013507;29;20052;-58
2023/09/18 13:24:06;;;;;;;3.70;3.50;;;22.90;90.90;;;;;;4012189;29;19971;-58
2023/09/18 13:26:47;;;;;;;4.25;3.78;;;22.90;90.70;;;;;;4012889;29;20106;-57
2023/09/18 13:29:29;;;;;;;3.92;3.63;;;23.00;90.40;;;;;;4012562;29;20084;-57
2023/09/18 13:32:11;;;;;;;4.68;4.22;;;23.00;90.80;;;;;;4012418;29;20091;-57
2023/09/18 13:34:52;;;;;;;3.42;3.13;;;23.00;90.40;;;;;;4013040;29;20056;-57
2023/09/18 13:37:35;;;;;;;4.15;3.85;;;23.00;90.20;;;;;;4012700;29;20060;-57
2023/09/18 13:40:16;;;;;;;4.35;3.40;;;23.00;90.20;;;;;;4012526;29;20477;-57
2023/09/18 13:42:58;;;;;;;4.47;3.72;;;23.00;90.20;;;;;;4012517;29;20049;-58
2023/09/18 13:45:39;;;;;;;5.68;4.10;;;23.10;90.30;;;;;;4012662;29;20056;-57
2023/09/18 13:48:20;;;;;;;;;;;23.10;90.20;;;;;;4013012;29;20061;-57
2023/09/18 13:51:01;;;;;;;3.90;3.60;;;23.10;90.40;;;;;;4012308;29;19935;-57
2023/09/18 13:53:44;;;;;;;3.35;3.13;;;23.10;90.00;;;;;;4012036;29;20090;-57
2023/09/18 13:56:27;;;;;;;4.53;3.55;;;23.10;89.60;;;;;;4012052;29;20393;-57
2023/09/18 13:59:09;;;;;;;4.30;3.45;;;23.10;90.00;;;;;;4012290;29;20060;-58
2023/09/18 14:01:51;;;;;;;3.38;3.08;;;23.20;89.30;;;;;;4012771;29;20057;-57